Time;durP1;ratioP1;P1;durP2;ratioP2;P2;SDS_P1;SDS_P2;PMS_P1;PMS_P2;Temp;Humidity;BMP_temperature;BMP_pressure;BME280_temperature;BME280_humidity;BME280_pressure;Samples;Min_cycle;Max_cycle;Signal;HPM_P1;HPM_P2
2022/07/11 00:00:51;;;;;;;0.95;0.80;;;15.70;99.90;;;;;;5242723;28;20038;-58
2022/07/11 00:03:24;;;;;;;0.80;0.80;;;15.70;99.90;;;;;;5243232;28;20020;-58
2022/07/11 00:05:55;;;;;;;1.98;1.00;;;15.70;99.90;;;;;;5217794;28;20043;-59
2022/07/11 00:08:27;;;;;;;1.95;0.90;;;15.70;99.90;;;;;;5240856;28;20034;-58
2022/07/11 00:10:58;;;;;;;1.30;0.88;;;15.70;99.90;;;;;;5242035;28;20336;-58
2022/07/11 00:13:29;;;;;;;0.70;0.70;;;15.70;99.90;;;;;;5227224;28;20028;-58
2022/07/11 00:16:04;;;;;;;1.83;0.90;;;15.70;99.90;;;;;;5242396;28;20046;-58
2022/07/11 00:18:37;;;;;;;0.82;0.82;;;15.70;99.90;;;;;;5243988;28;20024;-58
2022/07/11 00:21:08;;;;;;;0.63;0.63;;;15.70;99.90;;;;;;5243309;28;20039;-58
2022/07/11 00:23:40;;;;;;;1.42;1.20;;;15.70;99.90;;;;;;5225648;28;20401;-58
2022/07/11 00:26:16;;;;;;;2.10;0.82;;;15.70;99.90;;;;;;5242735;28;20028;-58
2022/07/11 00:28:50;;;;;;;1.55;0.88;;;15.70;99.90;;;;;;5260851;28;20029;-58
2022/07/11 00:31:25;;;;;;;0.82;0.75;;;15.70;99.90;;;;;;5260390;28;20042;-58
2022/07/11 00:33:57;;;;;;;0.70;0.68;;;15.60;99.90;;;;;;5197186;28;20040;-58
2022/07/11 00:36:28;;;;;;;0.75;0.70;;;15.60;99.90;;;;;;5180298;28;20034;-58
2022/07/11 00:39:02;;;;;;;0.80;0.80;;;15.60;99.90;;;;;;5196237;28;20040;-58
2022/07/11 00:41:38;;;;;;;0.80;0.80;;;15.60;99.90;;;;;;5180655;28;20091;-58
2022/07/11 00:44:10;;;;;;;2.50;0.93;;;15.60;99.90;;;;;;5196463;28;20029;-58
2022/07/11 00:46:41;;;;;;;1.90;0.75;;;15.60;99.90;;;;;;5164314;28;20038;-59
2022/07/11 00:49:12;;;;;;;0.80;0.80;;;15.50;99.90;;;;;;5179384;28;20050;-58
2022/07/11 00:51:45;;;;;;;0.82;0.77;;;15.50;99.90;;;;;;5180130;28;20030;-59
2022/07/11 00:54:18;;;;;;;1.25;1.15;;;15.50;99.90;;;;;;5181023;28;20044;-58
2022/07/11 00:56:55;;;;;;;0.90;0.90;;;15.50;99.90;;;;;;5196509;28;20040;-58
2022/07/11 00:59:29;;;;;;;0.90;0.90;;;15.50;99.90;;;;;;5252071;28;20040;-58
2022/07/11 01:02:04;;;;;;;0.73;0.70;;;15.50;99.90;;;;;;5259595;28;20028;-58
2022/07/11 01:04:41;;;;;;;0.68;0.68;;;15.50;99.90;;;;;;5214066;28;20040;-58
2022/07/11 01:07:13;;;;;;;0.77;0.77;;;15.50;99.90;;;;;;5241844;28;20118;-58
2022/07/11 01:09:44;;;;;;;0.95;0.80;;;15.50;99.90;;;;;;5223888;28;20277;-58
2022/07/11 01:12:19;;;;;;;0.90;0.90;;;15.50;99.90;;;;;;5241524;28;20205;-58
2022/07/11 01:15:00;;;;;;;0.77;0.77;;;15.50;99.90;;;;;;5241819;28;20278;-58
2022/07/11 01:17:34;;;;;;;1.15;0.73;;;15.50;99.90;;;;;;5260173;28;20032;-58
2022/07/11 01:20:06;;;;;;;1.13;1.02;;;15.50;99.90;;;;;;5245710;28;20037;-58
2022/07/11 01:22:44;;;;;;;2.47;1.00;;;15.50;99.90;;;;;;5241422;28;20032;-58
2022/07/11 01:25:29;;;;;;;0.70;0.70;;;15.50;99.90;;;;;;5240122;28;20024;-58
2022/07/11 01:28:08;;;;;;;0.93;0.93;;;15.50;99.90;;;;;;5259687;28;20031;-58
2022/07/11 01:30:51;;;;;;;1.63;0.98;;;15.50;99.90;;;;;;5259059;28;20073;-58
2022/07/11 01:33:22;;;;;;;1.00;0.70;;;15.50;99.90;;;;;;5259338;28;20023;-58
2022/07/11 01:35:53;;;;;;;2.70;0.80;;;15.50;99.90;;;;;;5241049;28;20032;-58
2022/07/11 01:38:26;;;;;;;0.60;0.60;;;15.50;99.90;;;;;;5240296;28;20042;-60
2022/07/11 01:41:02;;;;;;;0.68;0.65;;;15.50;99.90;;;;;;5258776;28;20032;-58
2022/07/11 01:43:41;;;;;;;3.97;0.80;;;15.50;99.90;;;;;;5259750;28;20197;-58
2022/07/11 01:49:40;;;;;;;0.65;0.65;;;15.50;99.90;;;;;;5260699;28;20020;-58
2022/07/11 01:55:42;;;;;;;0.88;0.88;;;15.40;99.90;;;;;;5240714;28;20039;-58
2022/07/11 01:58:13;;;;;;;;;;;15.40;99.90;;;;;;5240828;28;20314;-58
2022/07/11 02:00:47;;;;;;;1.10;0.80;;;15.30;99.90;;;;;;5241129;28;19900;-58
2022/07/11 02:03:19;;;;;;;0.82;0.82;;;15.30;99.90;;;;;;5258952;28;20028;-58
2022/07/11 02:05:55;;;;;;;1.20;0.82;;;15.30;99.90;;;;;;5224804;28;20035;-58
2022/07/11 02:08:27;;;;;;;0.88;0.68;;;15.30;99.90;;;;;;5241175;28;20363;-58
2022/07/11 02:10:58;;;;;;;0.95;0.68;;;15.30;99.90;;;;;;5224310;28;20225;-58
2022/07/11 02:13:31;;;;;;;1.40;1.40;;;15.30;99.90;;;;;;5240767;28;20040;-58
2022/07/11 02:16:03;;;;;;;1.10;0.85;;;15.20;99.90;;;;;;5241137;28;20035;-58
2022/07/11 02:18:34;;;;;;;0.68;0.68;;;15.30;99.90;;;;;;5259328;28;20028;-58
2022/07/11 02:21:06;;;;;;;0.90;0.90;;;15.30;99.90;;;;;;5240457;28;20294;-59
2022/07/11 02:23:41;;;;;;;1.08;0.73;;;15.40;99.90;;;;;;5219675;28;20039;-58
2022/07/11 02:26:13;;;;;;;0.85;0.85;;;15.30;99.90;;;;;;5239459;28;20290;-58
2022/07/11 02:28:44;;;;;;;0.88;0.88;;;15.30;99.90;;;;;;5204108;28;20035;-58
2022/07/11 02:31:18;;;;;;;1.17;0.95;;;15.30;99.90;;;;;;5238542;28;20021;-58
2022/07/11 02:33:49;;;;;;;0.82;0.82;;;15.30;99.90;;;;;;5220500;28;20037;-58
2022/07/11 02:36:21;;;;;;;0.73;0.73;;;15.30;99.90;;;;;;5221154;28;20029;-58
2022/07/11 02:38:57;;;;;;;0.75;0.75;;;15.40;99.90;;;;;;5203933;28;20051;-59
2022/07/11 02:41:31;;;;;;;3.05;0.70;;;15.30;99.90;;;;;;5237956;28;20031;-60
2022/07/11 02:44:02;;;;;;;0.68;0.68;;;15.10;99.90;;;;;;5220738;28;20092;-58
2022/07/11 02:46:34;;;;;;;0.80;0.80;;;14.90;99.90;;;;;;5220242;28;20035;-59
2022/07/11 02:49:05;;;;;;;1.10;0.80;;;14.80;99.90;;;;;;5170996;28;20037;-62
2022/07/11 02:51:39;;;;;;;1.55;0.90;;;14.70;99.90;;;;;;5204060;28;20339;-62
2022/07/11 02:54:14;;;;;;;0.90;0.90;;;14.50;99.90;;;;;;5204190;28;20043;-62
2022/07/11 02:56:46;;;;;;;1.45;1.35;;;14.30;99.90;;;;;;5219723;28;20029;-63
2022/07/11 02:59:17;;;;;;;1.27;1.00;;;14.20;99.90;;;;;;5236304;28;20029;-64
2022/07/11 03:01:49;;;;;;;2.17;0.98;;;14.00;99.90;;;;;;5220009;28;20205;-63
2022/07/11 03:04:20;;;;;;;1.45;0.80;;;13.90;99.90;;;;;;5227074;28;20028;-62
2022/07/11 03:06:52;;;;;;;1.42;0.80;;;13.80;99.90;;;;;;5201662;28;20039;-62
2022/07/11 03:09:26;;;;;;;0.90;0.90;;;13.80;99.90;;;;;;5224065;28;20043;-61
2022/07/11 03:12:01;;;;;;;1.02;1.02;;;13.70;99.90;;;;;;5223321;28;20306;-61
2022/07/11 03:14:34;;;;;;;1.25;0.90;;;13.70;99.90;;;;;;5206804;28;20037;-61
2022/07/11 03:17:11;;;;;;;0.98;0.98;;;13.70;99.90;;;;;;5224281;28;20035;-61
2022/07/11 03:19:42;;;;;;;1.92;0.93;;;13.70;99.90;;;;;;5240774;28;20336;-61
2022/07/11 03:22:14;;;;;;;0.90;0.90;;;13.60;99.90;;;;;;5191374;28;20047;-61
2022/07/11 03:24:50;;;;;;;1.00;0.90;;;13.60;99.90;;;;;;5242218;28;20020;-60
2022/07/11 03:27:24;;;;;;;1.10;1.10;;;13.50;99.90;;;;;;5224212;28;20029;-60
2022/07/11 03:29:58;;;;;;;1.00;1.00;;;13.60;99.90;;;;;;5206707;28;20043;-60
2022/07/11 03:32:29;;;;;;;1.00;0.90;;;13.50;99.90;;;;;;5206900;28;20039;-60
2022/07/11 03:37:51;;;;;;;1.10;1.10;;;13.50;99.90;;;;;;5256280;28;20032;-62
2022/07/11 03:40:23;;;;;;;0.70;0.70;;;13.50;99.90;;;;;;5228118;28;20286;-61
2022/07/11 03:42:56;;;;;;;0.85;0.85;;;13.60;99.90;;;;;;5243465;28;20037;-60
2022/07/11 03:45:27;;;;;;;1.02;0.90;;;13.60;99.90;;;;;;5262047;28;20031;-60
2022/07/11 03:48:01;;;;;;;1.02;0.90;;;13.60;99.90;;;;;;5242972;28;20195;-60
2022/07/11 03:50:34;;;;;;;1.98;0.98;;;13.70;99.90;;;;;;5243490;28;20033;-62
2022/07/11 03:53:05;;;;;;;0.80;0.80;;;13.70;99.90;;;;;;5262179;28;20302;-62
2022/07/11 03:55:41;;;;;;;0.80;0.80;;;13.70;99.90;;;;;;5244187;28;20047;-60
2022/07/11 03:58:12;;;;;;;0.90;0.90;;;13.70;99.90;;;;;;5242820;28;20039;-60
2022/07/11 04:00:46;;;;;;;1.10;1.00;;;13.70;99.90;;;;;;5259349;28;20036;-59
2022/07/11 04:03:17;;;;;;;0.97;0.97;;;13.70;99.90;;;;;;5261945;28;20024;-60
2022/07/11 04:05:48;;;;;;;0.90;0.90;;;13.80;99.90;;;;;;5249082;28;20289;-60
2022/07/11 04:08:21;;;;;;;1.00;1.00;;;13.80;99.90;;;;;;5261961;28;20039;-60
2022/07/11 04:10:52;;;;;;;1.00;0.90;;;13.90;99.90;;;;;;5260360;28;20032;-60
2022/07/11 04:13:28;;;;;;;2.25;0.93;;;14.00;99.90;;;;;;5261751;28;20190;-62
2022/07/11 04:16:00;;;;;;;0.90;0.90;;;14.20;99.90;;;;;;5260603;28;20032;-60
2022/07/11 04:18:36;;;;;;;2.28;1.15;;;14.40;99.90;;;;;;5260183;28;20033;-60
2022/07/11 04:21:07;;;;;;;2.80;0.80;;;14.50;99.90;;;;;;5241383;28;20029;-60
2022/07/11 04:23:38;;;;;;;3.22;1.40;;;14.60;99.90;;;;;;5259064;28;20182;-60
2022/07/11 04:26:15;;;;;;;0.80;0.80;;;14.70;99.90;;;;;;5242345;28;20032;-60
2022/07/11 04:28:46;;;;;;;0.63;0.63;;;14.80;99.90;;;;;;5261335;28;20030;-60
2022/07/11 04:31:20;;;;;;;1.38;0.80;;;14.80;99.90;;;;;;5261059;28;20201;-60
2022/07/11 04:33:54;;;;;;;1.17;1.17;;;14.90;99.90;;;;;;5260975;28;20029;-60
2022/07/11 04:36:25;;;;;;;0.90;0.90;;;14.90;99.90;;;;;;5242906;28;20051;-59
2022/07/11 04:38:56;;;;;;;0.80;0.80;;;15.00;99.90;;;;;;5240674;28;20032;-60
2022/07/11 04:41:30;;;;;;;0.82;0.82;;;15.00;99.90;;;;;;5259234;28;20036;-59
2022/07/11 04:44:04;;;;;;;0.70;0.70;;;15.00;99.90;;;;;;5260215;28;20024;-60
2022/07/11 04:46:35;;;;;;;0.63;0.63;;;15.00;99.90;;;;;;5237241;28;20020;-60
2022/07/11 04:49:06;;;;;;;0.60;0.60;;;15.00;99.90;;;;;;5218441;28;20036;-60
2022/07/11 04:51:37;;;;;;;5.82;1.33;;;15.10;99.90;;;;;;5236759;28;20025;-60
2022/07/11 04:54:08;;;;;;;0.90;0.80;;;15.10;99.90;;;;;;5238378;28;20031;-60
2022/07/11 04:56:45;;;;;;;0.73;0.73;;;15.20;99.90;;;;;;5241200;28;20043;-60
2022/07/11 04:59:19;;;;;;;2.15;0.88;;;15.20;99.90;;;;;;5240324;28;20040;-60
2022/07/11 05:01:53;;;;;;;1.20;1.10;;;15.20;99.90;;;;;;5241319;28;20034;-59
2022/07/11 05:04:24;;;;;;;0.63;0.60;;;15.30;99.90;;;;;;5248644;28;20100;-60
2022/07/11 05:06:55;;;;;;;0.80;0.80;;;15.30;99.90;;;;;;5257801;28;20320;-60
2022/07/11 05:09:29;;;;;;;0.82;0.82;;;15.40;99.90;;;;;;5259950;28;20032;-61
2022/07/11 05:12:06;;;;;;;0.77;0.77;;;15.50;99.90;;;;;;5259276;28;20036;-62
2022/07/11 05:14:37;;;;;;;0.75;0.75;;;15.50;99.90;;;;;;5241909;28;20293;-60
2022/07/11 05:17:09;;;;;;;0.70;0.70;;;15.70;99.90;;;;;;5259800;28;20021;-60
2022/07/11 05:19:45;;;;;;;1.88;1.35;;;15.80;99.90;;;;;;5259608;28;20032;-61
2022/07/11 05:22:16;;;;;;;0.73;0.73;;;15.90;99.90;;;;;;5259743;28;20031;-60
2022/07/11 05:24:49;;;;;;;1.48;0.80;;;16.00;99.90;;;;;;5259772;28;20022;-60
2022/07/11 05:27:21;;;;;;;1.02;0.80;;;16.10;99.90;;;;;;5260171;28;20028;-60
2022/07/11 05:29:52;;;;;;;1.13;0.82;;;16.30;99.90;;;;;;5241067;28;20032;-60
2022/07/11 05:32:28;;;;;;;1.08;0.90;;;16.50;99.90;;;;;;5260470;28;20038;-61
2022/07/11 05:35:03;;;;;;;2.53;0.82;;;16.70;99.90;;;;;;5240863;28;20205;-61
2022/07/11 05:37:35;;;;;;;1.30;0.63;;;16.70;99.90;;;;;;5260030;28;20323;-61
2022/07/11 05:40:07;;;;;;;1.75;0.90;;;16.70;99.90;;;;;;5257923;28;20036;-61
2022/07/11 05:42:38;;;;;;;0.60;0.60;;;16.80;99.90;;;;;;5245401;28;20057;-61
2022/07/11 05:45:12;;;;;;;1.10;0.65;;;16.90;99.90;;;;;;5242501;28;20039;-61
2022/07/11 05:47:45;;;;;;;3.23;0.80;;;16.90;99.90;;;;;;5225937;28;20032;-61
2022/07/11 05:50:19;;;;;;;0.80;0.80;;;16.90;99.90;;;;;;5251050;28;20375;-61
2022/07/11 05:52:50;;;;;;;0.85;0.80;;;16.70;99.90;;;;;;5224116;28;20054;-61
2022/07/11 05:55:22;;;;;;;0.85;0.85;;;16.60;99.90;;;;;;5250538;28;20020;-59
2022/07/11 05:57:56;;;;;;;1.13;0.88;;;16.40;99.90;;;;;;5237900;28;20326;-60
2022/07/11 06:00:27;;;;;;;0.68;0.68;;;16.50;99.90;;;;;;5249009;28;20054;-60
2022/07/11 06:02:58;;;;;;;0.70;0.70;;;16.40;99.90;;;;;;5244031;28;20025;-59
2022/07/11 06:05:34;;;;;;;1.20;0.88;;;16.40;99.90;;;;;;5240138;28;20056;-59
2022/07/11 06:11:17;;;;;;;0.80;0.80;;;16.40;99.90;;;;;;5186902;28;20798;-61
2022/07/11 06:13:51;;;;;;;3.10;1.05;;;16.50;99.90;;;;;;5175413;28;20050;-60
2022/07/11 06:16:27;;;;;;;1.17;0.98;;;16.50;99.90;;;;;;5177496;28;20036;-62
2022/07/11 06:18:59;;;;;;;0.70;0.70;;;16.50;99.90;;;;;;5170878;28;20038;-63
2022/07/11 06:21:30;;;;;;;0.88;0.88;;;16.50;99.90;;;;;;5180720;28;20153;-59
2022/07/11 06:24:03;;;;;;;1.27;0.98;;;16.40;99.90;;;;;;5177042;28;20298;-61
2022/07/11 06:26:39;;;;;;;0.98;0.98;;;16.50;99.90;;;;;;5184751;28;20038;-59
2022/07/11 06:29:10;;;;;;;0.75;0.75;;;16.60;99.90;;;;;;5186274;28;20024;-59
2022/07/11 06:31:42;;;;;;;1.45;0.93;;;16.50;99.90;;;;;;5185477;28;20030;-61
2022/07/11 06:34:16;;;;;;;0.70;0.70;;;16.50;99.90;;;;;;5172375;28;20041;-59
2022/07/11 06:36:47;;;;;;;0.90;0.90;;;16.50;99.90;;;;;;5134079;28;20354;-59
2022/07/11 06:39:21;;;;;;;1.98;1.10;;;16.40;99.90;;;;;;5160270;28;20042;-59
2022/07/11 06:41:55;;;;;;;1.63;0.98;;;16.40;99.90;;;;;;5179260;28;20038;-58
2022/07/11 06:44:29;;;;;;;2.60;0.80;;;16.50;99.90;;;;;;5159417;28;20025;-59
2022/07/11 06:47:04;;;;;;;0.98;0.98;;;16.50;99.90;;;;;;5227420;28;20040;-61
2022/07/11 06:49:39;;;;;;;0.98;0.90;;;16.60;99.90;;;;;;5260515;28;20039;-61
2022/07/11 06:52:14;;;;;;;0.80;0.80;;;16.80;99.90;;;;;;5235510;28;20042;-60
2022/07/11 06:54:48;;;;;;;2.15;0.75;;;17.00;99.90;;;;;;5202935;28;20028;-60
2022/07/11 06:57:19;;;;;;;1.10;0.63;;;17.20;99.90;;;;;;5203951;28;20024;-60
2022/07/11 06:59:55;;;;;;;0.73;0.73;;;17.10;99.90;;;;;;5204727;28;20036;-60
2022/07/11 07:02:29;;;;;;;1.45;0.80;;;17.10;99.90;;;;;;5224920;28;20028;-60
2022/07/11 07:05:01;;;;;;;1.50;1.00;;;17.20;99.90;;;;;;5212725;28;20047;-62
2022/07/11 07:07:34;;;;;;;1.00;0.80;;;17.40;99.90;;;;;;5238151;28;20020;-59
2022/07/11 07:10:08;;;;;;;1.08;1.02;;;17.80;99.90;;;;;;5222517;28;20036;-59
2022/07/11 07:12:39;;;;;;;0.60;0.60;;;18.00;99.90;;;;;;5241181;28;20292;-60
2022/07/11 07:15:17;;;;;;;0.98;0.93;;;17.80;99.90;;;;;;5233462;28;20037;-58
2022/07/11 07:17:56;;;;;;;0.70;0.70;;;17.40;99.90;;;;;;5247426;28;20020;-61
2022/07/11 07:20:29;;;;;;;1.45;0.80;;;17.40;99.90;;;;;;5244108;28;20236;-60
2022/07/11 07:23:00;;;;;;;1.00;1.00;;;17.50;99.90;;;;;;5241356;28;20329;-60
2022/07/11 07:25:31;;;;;;;1.33;0.80;;;17.70;99.90;;;;;;5227797;28;20027;-60
2022/07/11 07:28:06;;;;;;;1.00;0.90;;;17.60;99.90;;;;;;5220674;28;20017;-61
2022/07/11 07:30:38;;;;;;;2.53;1.00;;;17.60;99.90;;;;;;5225237;28;20031;-61
2022/07/11 07:33:12;;;;;;;2.38;0.80;;;17.70;99.90;;;;;;5225663;28;20325;-59
2022/07/11 07:35:46;;;;;;;0.90;0.90;;;17.40;99.90;;;;;;5242491;28;20228;-61
2022/07/11 07:38:20;;;;;;;0.90;0.90;;;17.50;99.90;;;;;;5243598;28;20026;-61
2022/07/11 07:40:54;;;;;;;1.38;0.85;;;18.00;99.90;;;;;;5243360;28;20039;-61
2022/07/11 07:43:25;;;;;;;0.95;0.95;;;18.80;99.90;;;;;;5243629;28;20035;-61
2022/07/11 07:45:57;;;;;;;0.70;0.70;;;18.70;99.90;;;;;;5223111;28;20213;-61
2022/07/11 07:48:28;;;;;;;1.92;1.20;;;18.50;99.90;;;;;;5243159;28;20039;-61
2022/07/11 07:51:01;;;;;;;0.80;0.80;;;18.50;99.90;;;;;;5233342;28;20024;-61
2022/07/11 07:53:36;;;;;;;1.67;0.93;;;18.40;99.90;;;;;;5230184;28;20043;-61
2022/07/11 07:56:08;;;;;;;0.95;0.70;;;18.20;99.90;;;;;;5218540;28;20027;-62
2022/07/11 07:58:40;;;;;;;1.50;1.13;;;18.00;99.90;;;;;;5223464;28;20055;-61
2022/07/11 08:04:05;;;;;;;0.80;0.80;;;17.50;99.90;;;;;;5240932;28;20035;-61
2022/07/11 08:06:37;;;;;;;0.73;0.73;;;17.60;99.90;;;;;;5227284;28;20543;-60
2022/07/11 08:09:13;;;;;;;2.40;1.40;;;17.90;99.90;;;;;;5234419;28;20034;-60
2022/07/11 08:11:45;;;;;;;0.70;0.70;;;18.10;99.90;;;;;;5243777;28;20363;-61
2022/07/11 08:14:23;;;;;;;0.82;0.82;;;18.10;99.90;;;;;;5242136;28;20027;-61
2022/07/11 08:16:55;;;;;;;2.17;0.70;;;18.10;99.90;;;;;;5240720;28;20020;-60
2022/07/11 08:19:30;;;;;;;1.30;1.20;;;18.00;99.90;;;;;;5217221;28;20047;-60
2022/07/11 08:22:02;;;;;;;0.68;0.68;;;18.00;99.90;;;;;;5219679;28;20017;-60
2022/07/11 08:24:33;;;;;;;2.30;1.13;;;18.00;99.90;;;;;;5235516;28;20462;-60
2022/07/11 08:27:06;;;;;;;1.00;0.70;;;18.10;99.90;;;;;;5239326;28;20031;-60
2022/07/11 08:29:40;;;;;;;1.38;0.77;;;18.40;99.90;;;;;;5219439;28;20038;-61
2022/07/11 08:32:14;;;;;;;0.90;0.90;;;18.60;99.90;;;;;;5237987;28;20020;-61
2022/07/11 08:34:50;;;;;;;1.33;0.90;;;18.60;99.90;;;;;;5219871;28;20225;-59
2022/07/11 08:37:21;;;;;;;0.70;0.70;;;18.50;99.90;;;;;;5239141;28;20047;-59
2022/07/11 08:39:52;;;;;;;1.15;0.98;;;18.60;99.90;;;;;;5224545;28;20321;-60
2022/07/11 08:42:31;;;;;;;0.90;0.90;;;18.60;99.90;;;;;;5219895;28;20358;-61
2022/07/11 08:45:05;;;;;;;0.88;0.88;;;18.40;99.90;;;;;;5237451;28;20013;-60
2022/07/11 08:47:36;;;;;;;;;;;18.50;99.90;;;;;;5237146;28;20032;-61
2022/07/11 08:50:09;;;;;;;0.93;0.82;;;18.40;99.90;;;;;;5260984;28;20254;-60
2022/07/11 08:52:41;;;;;;;0.60;0.60;;;18.40;99.90;;;;;;5239096;28;20217;-60
2022/07/11 08:55:17;;;;;;;1.20;1.10;;;18.40;99.90;;;;;;5220876;28;20483;-59
2022/07/11 08:57:51;;;;;;;0.80;0.80;;;18.30;99.90;;;;;;5222158;28;20035;-60
2022/07/11 09:00:23;;;;;;;2.40;0.95;;;18.50;99.90;;;;;;5235019;28;20035;-59
2022/07/11 09:02:54;;;;;;;0.80;0.80;;;18.70;99.90;;;;;;5238843;28;20034;-60
2022/07/11 09:05:30;;;;;;;0.60;0.60;;;18.70;99.90;;;;;;5200463;28;20106;-61
2022/07/11 09:08:01;;;;;;;0.70;0.70;;;18.40;99.90;;;;;;5235307;28;20017;-60
2022/07/11 09:10:40;;;;;;;2.67;0.95;;;18.80;99.90;;;;;;5238312;28;20040;-59
2022/07/11 09:13:11;;;;;;;1.40;1.30;;;19.00;99.90;;;;;;5245122;28;20301;-60
2022/07/11 09:15:44;;;;;;;0.95;0.90;;;19.30;99.90;;;;;;5223106;28;20202;-59
2022/07/11 09:18:25;;;;;;;0.70;0.70;;;19.50;99.90;;;;;;5223446;28;20033;-60
2022/07/11 09:26:53;;;;;;;0.70;0.70;;;19.10;99.90;;;;;;5236829;28;20028;-59
2022/07/11 09:29:25;;;;;;;0.82;0.80;;;19.10;99.90;;;;;;5237863;28;20322;-60
2022/07/11 09:31:56;;;;;;;4.03;1.70;;;19.10;99.90;;;;;;5238794;28;20021;-61
2022/07/11 09:34:28;;;;;;;2.00;0.90;;;19.70;99.90;;;;;;5216505;28;20220;-60
2022/07/11 09:36:59;;;;;;;0.80;0.80;;;20.40;99.90;;;;;;5241165;28;20017;-59
2022/07/11 09:39:34;;;;;;;0.80;0.80;;;20.70;99.90;;;;;;5241407;28;20348;-60
2022/07/11 09:42:08;;;;;;;1.13;1.00;;;20.60;99.90;;;;;;5236551;28;20026;-60
2022/07/11 09:44:39;;;;;;;0.60;0.60;;;20.40;99.90;;;;;;5256457;28;20039;-60
2022/07/11 09:47:10;;;;;;;2.80;1.10;;;20.30;99.90;;;;;;5239926;28;20016;-60
2022/07/11 09:49:46;;;;;;;0.85;0.85;;;20.50;99.90;;;;;;5233376;28;20035;-61
2022/07/11 09:52:17;;;;;;;2.90;1.10;;;20.50;99.90;;;;;;5247926;28;20028;-61
2022/07/11 09:55:01;;;;;;;1.60;0.93;;;20.70;99.90;;;;;;5242953;28;20032;-60
2022/07/11 09:57:35;;;;;;;1.23;1.13;;;20.70;99.90;;;;;;5243202;28;20026;-61
2022/07/11 10:00:11;;;;;;;1.25;1.10;;;20.70;99.90;;;;;;5242712;28;20302;-61
2022/07/11 10:02:43;;;;;;;1.30;0.80;;;20.70;99.90;;;;;;5223597;28;20026;-60
2022/07/11 10:05:15;;;;;;;0.70;0.70;;;21.50;99.90;;;;;;5225404;28;20411;-60
2022/07/11 10:07:46;;;;;;;3.35;1.02;;;21.70;99.90;;;;;;5244721;28;20324;-60
2022/07/11 10:10:22;;;;;;;0.70;0.70;;;21.40;99.90;;;;;;5220792;28;20040;-61
2022/07/11 10:12:56;;;;;;;1.13;0.80;;;21.30;99.90;;;;;;5220890;28;20050;-60
2022/07/11 10:15:35;;;;;;;0.85;0.85;;;21.90;99.90;;;;;;5240260;28;20047;-61
2022/07/11 10:18:31;;;;;;;0.88;0.88;;;21.50;99.90;;;;;;5220854;28;20021;-60
2022/07/11 10:21:07;;;;;;;;;;;21.10;99.90;;;;;;5230541;28;20043;-61
2022/07/11 10:23:46;;;;;;;1.90;0.73;;;20.90;99.90;;;;;;5244124;28;19900;-59
2022/07/11 10:26:40;;;;;;;2.88;0.90;;;20.30;99.90;;;;;;5226397;28;20043;-61
2022/07/11 10:29:28;;;;;;;0.70;0.70;;;20.30;99.90;;;;;;5242097;28;20036;-59
2022/07/11 10:32:13;;;;;;;0.90;0.90;;;20.50;99.90;;;;;;5225356;28;20210;-61
2022/07/11 10:34:46;;;;;;;;;;;20.30;99.90;;;;;;5242403;28;20122;-61
2022/07/11 10:37:21;;;;;;;3.30;0.98;;;20.10;99.90;;;;;;5243474;28;19900;-59
2022/07/11 10:39:58;;;;;;;0.80;0.80;;;20.00;99.90;;;;;;5243590;28;20040;-59
2022/07/11 10:42:48;;;;;;;0.90;0.90;;;20.00;99.90;;;;;;5243338;28;20202;-60
2022/07/11 10:45:22;;;;;;;0.90;0.90;;;19.80;99.90;;;;;;5237208;28;20036;-60
2022/07/11 10:47:53;;;;;;;0.90;0.90;;;19.80;99.90;;;;;;5243909;28;20016;-60
2022/07/11 10:50:40;;;;;;;1.27;1.00;;;20.30;99.90;;;;;;5242145;28;20024;-61
2022/07/11 10:53:24;;;;;;;0.80;0.80;;;20.10;99.90;;;;;;5255040;28;20024;-61
2022/07/11 10:56:05;;;;;;;1.10;0.73;;;20.70;99.90;;;;;;5242371;28;20023;-59
2022/07/11 10:58:43;;;;;;;0.73;0.73;;;21.50;99.90;;;;;;5222269;28;20035;-62
2022/07/11 11:01:17;;;;;;;0.63;0.63;;;21.80;99.90;;;;;;5221624;28;20032;-62
2022/07/11 11:03:50;;;;;;;0.70;0.70;;;22.50;99.90;;;;;;5223485;28;20473;-60
2022/07/11 11:07:02;;;;;;;0.80;0.80;;;21.80;99.90;;;;;;5207886;28;20036;-59
2022/07/11 11:09:40;;;;;;;0.82;0.60;;;21.80;99.90;;;;;;5238061;28;20025;-61
2022/07/11 11:12:16;;;;;;;1.08;0.70;;;21.70;99.90;;;;;;5242662;28;20016;-60
2022/07/11 11:14:47;;;;;;;0.68;0.68;;;21.30;99.90;;;;;;5242436;28;20021;-61
2022/07/11 11:17:36;;;;;;;0.68;0.68;;;21.10;99.90;;;;;;5214122;28;21126;-60
2022/07/11 11:20:27;;;;;;;1.05;0.88;;;20.50;99.90;;;;;;5231534;28;20020;-59
2022/07/11 11:23:10;;;;;;;0.73;0.73;;;20.70;99.90;;;;;;5242468;28;20328;-61
2022/07/11 11:25:49;;;;;;;0.70;0.68;;;22.50;99.90;;;;;;5248081;28;20350;-61
2022/07/11 11:28:22;;;;;;;0.65;0.65;;;23.40;99.90;;;;;;5224966;28;20023;-60
2022/07/11 11:30:54;;;;;;;0.77;0.77;;;23.50;99.90;;;;;;5238845;28;20027;-60
2022/07/11 11:33:37;;;;;;;1.23;0.70;;;22.70;99.90;;;;;;5241525;28;20039;-60
2022/07/11 11:36:09;;;;;;;0.75;0.75;;;22.30;99.90;;;;;;5239470;28;20016;-61
2022/07/11 11:38:48;;;;;;;0.80;0.80;;;23.30;99.90;;;;;;5226894;28;20213;-61
2022/07/11 11:41:31;;;;;;;0.65;0.65;;;22.60;99.90;;;;;;5224497;28;20032;-61
2022/07/11 11:44:03;;;;;;;0.60;0.60;;;22.10;99.90;;;;;;5223786;28;20254;-61
2022/07/11 11:46:34;;;;;;;0.50;0.50;;;21.90;99.90;;;;;;5243754;28;20031;-60
2022/07/11 11:49:10;;;;;;;1.33;0.70;;;21.60;99.90;;;;;;5222816;28;20118;-62
2022/07/11 11:51:48;;;;;;;0.63;0.63;;;21.90;99.90;;;;;;5240366;28;20024;-60
2022/07/11 11:54:30;;;;;;;0.98;0.98;;;21.30;99.90;;;;;;5253775;28;20025;-60
2022/07/11 11:57:11;;;;;;;0.68;0.68;;;21.10;99.90;;;;;;5242062;28;20034;-59
2022/07/11 11:59:43;;;;;;;1.38;0.70;;;20.80;99.90;;;;;;5253675;28;20028;-59
2022/07/11 12:02:23;;;;;;;0.75;0.75;;;20.70;99.90;;;;;;5242484;28;20029;-60
2022/07/11 12:04:56;;;;;;;0.93;0.70;;;20.70;99.90;;;;;;5220995;28;20040;-61
2022/07/11 12:07:28;;;;;;;0.80;0.80;;;20.70;99.90;;;;;;5244523;28;20027;-60
2022/07/11 12:10:03;;;;;;;0.60;0.60;;;21.10;99.90;;;;;;5200691;28;1219338;-60
2022/07/11 12:12:43;;;;;;;0.73;0.70;;;21.50;99.90;;;;;;5252085;28;20021;-60
2022/07/11 12:15:27;;;;;;;0.88;0.80;;;21.50;99.90;;;;;;5181500;28;20043;-59
2022/07/11 12:18:04;;;;;;;0.60;0.60;;;20.90;99.90;;;;;;5221839;28;20021;-59
2022/07/11 12:20:46;;;;;;;0.63;0.63;;;20.80;99.90;;;;;;5218965;28;20033;-61
2022/07/11 12:23:21;;;;;;;0.77;0.60;;;20.50;99.90;;;;;;5228895;28;20344;-61
2022/07/11 12:25:52;;;;;;;0.77;0.68;;;20.40;99.90;;;;;;5234002;28;20043;-61
2022/07/11 12:28:26;;;;;;;1.33;0.57;;;20.50;99.90;;;;;;5239592;28;20023;-59
2022/07/11 12:31:01;;;;;;;2.50;0.73;;;21.50;99.90;;;;;;5241309;28;20024;-61
2022/07/11 12:33:32;;;;;;;1.20;0.50;;;23.80;99.90;;;;;;5243111;28;20201;-61
2022/07/11 12:36:04;;;;;;;1.42;0.57;;;23.30;99.90;;;;;;5222106;28;20344;-61
2022/07/11 12:38:52;;;;;;;0.47;0.47;;;22.80;99.90;;;;;;5223606;28;20032;-59
2022/07/11 12:41:28;;;;;;;0.60;0.60;;;22.50;99.90;;;;;;5220637;28;20031;-60
2022/07/11 12:47:04;;;;;;;0.50;0.50;;;22.30;99.90;;;;;;5244828;28;20042;-59
2022/07/11 12:49:35;;;;;;;0.60;0.60;;;22.20;99.90;;;;;;5221409;28;20325;-61
2022/07/11 12:52:13;;;;;;;0.95;0.60;;;22.10;99.90;;;;;;5221866;28;20484;-60
2022/07/11 12:54:50;;;;;;;0.40;0.40;;;23.30;99.90;;;;;;5217279;28;20032;-65
2022/07/11 12:57:21;;;;;;;0.32;0.32;;;26.00;99.90;;;;;;5231562;28;20247;-60
2022/07/11 12:59:53;;;;;;;0.40;0.40;;;26.60;99.90;;;;;;5217128;28;20612;-63
2022/07/11 13:02:29;;;;;;;0.40;0.40;;;26.50;99.90;;;;;;5236700;28;20392;-61
2022/07/11 13:05:03;;;;;;;0.47;0.47;;;25.30;99.90;;;;;;5224705;28;20052;-60
2022/07/11 13:10:27;;;;;;;1.45;0.60;;;23.50;99.90;;;;;;5236865;28;20032;-61
2022/07/11 13:13:04;;;;;;;0.57;0.57;;;22.60;99.90;;;;;;5239409;28;20271;-60
2022/07/11 13:15:37;;;;;;;0.52;0.52;;;22.00;99.90;;;;;;5242262;28;20058;-60
2022/07/11 13:18:09;;;;;;;1.17;0.40;;;21.90;99.90;;;;;;5234424;28;20233;-60
2022/07/11 13:20:40;;;;;;;0.43;0.43;;;21.80;99.90;;;;;;5241154;28;20036;-61
2022/07/11 13:23:14;;;;;;;0.40;0.40;;;21.70;99.90;;;;;;5230047;28;20020;-59
2022/07/11 13:25:45;;;;;;;0.70;0.70;;;21.50;99.90;;;;;;5220439;28;20219;-60
2022/07/11 13:28:16;;;;;;;0.50;0.50;;;21.20;99.90;;;;;;5201262;28;20318;-61
2022/07/11 13:30:47;;;;;;;0.52;0.52;;;21.30;99.90;;;;;;5219476;28;20027;-60
2022/07/11 13:33:20;;;;;;;0.50;0.50;;;21.30;99.90;;;;;;5223655;28;20038;-59
2022/07/11 13:35:55;;;;;;;1.55;0.77;;;21.00;99.90;;;;;;5205169;28;20396;-60
2022/07/11 13:38:34;;;;;;;0.98;0.70;;;21.00;99.90;;;;;;5246807;28;20576;-59
2022/07/11 13:41:05;;;;;;;0.38;0.38;;;21.00;99.90;;;;;;5239240;28;20054;-61
2022/07/11 13:43:40;;;;;;;0.50;0.50;;;22.20;99.90;;;;;;5203572;28;20035;-59
2022/07/11 13:46:11;;;;;;;1.98;0.40;;;24.90;99.90;;;;;;5229841;28;20019;-61
2022/07/11 13:48:42;;;;;;;1.42;0.50;;;27.00;99.90;;;;;;5259583;28;20028;-62
2022/07/11 13:51:15;;;;;;;0.52;0.30;;;27.60;99.90;;;;;;5260623;28;20118;-63